createdAt,value
2022-08-09T00:01:54.583Z,80.20
2022-08-09T00:05:03.740Z,80.10
2022-08-09T00:08:10.011Z,80.10
2022-08-09T00:11:05.803Z,81.40
2022-08-09T00:14:21.963Z,81.10
2022-08-09T00:18:10.614Z,80.20
2022-08-09T00:20:50.088Z,81.10
2022-08-09T00:23:54.792Z,81.10
2022-08-09T00:26:52.967Z,80.50
2022-08-09T00:30:21.427Z,79.30
2022-08-09T00:33:04.630Z,80.40
2022-08-09T00:36:02.209Z,80.70
2022-08-09T00:38:56.922Z,80.50
2022-08-09T00:44:11.421Z,79.80
2022-08-09T00:45:15.665Z,77.80
2022-08-09T00:48:15.488Z,77.60
2022-08-09T00:51:14.909Z,76.90
2022-08-09T00:54:10.898Z,75.90
2022-08-09T00:57:08.758Z,76.40
2022-08-09T01:00:21.079Z,76.50
2022-08-09T01:03:46.235Z,73.70
2022-08-09T01:07:03.743Z,73.30
2022-08-09T01:10:08.327Z,73.00
2022-08-09T01:13:07.396Z,71.20
2022-08-09T01:16:05.660Z,71.30
2022-08-09T01:19:17.089Z,71.40
2022-08-09T01:22:35.904Z,71.30
2022-08-09T01:26:01.695Z,67.70
2022-08-09T01:28:57.845Z,68.00
2022-08-09T01:32:31.324Z,67.40
2022-08-09T01:35:37.692Z,63.70
2022-08-09T01:38:33.575Z,63.40
2022-08-09T01:41:35.742Z,62.80
2022-08-09T01:44:32.194Z,62.40
2022-08-09T01:47:31.354Z,63.30
2022-08-09T01:50:36.741Z,60.60
2022-08-09T01:53:41.308Z,59.90
2022-08-09T01:56:38.857Z,59.20
2022-08-09T01:59:41.106Z,59.70
2022-08-09T02:02:51.314Z,59.40
2022-08-09T02:06:03.825Z,57.20
2022-08-09T02:09:01.468Z,55.60
2022-08-09T02:11:57.994Z,56.00
2022-08-09T02:14:56.064Z,56.00
2022-08-09T02:18:01.773Z,54.70
2022-08-09T02:21:10.904Z,55.50
2022-08-09T02:24:26.319Z,55.00
2022-08-09T02:27:27.477Z,54.70
2022-08-09T02:30:49.839Z,55.00
2022-08-09T02:34:06.813Z,54.60
2022-08-09T02:37:07.263Z,52.80
2022-08-09T02:40:11.026Z,52.20
2022-08-09T02:43:06.591Z,52.50
2022-08-09T02:46:03.336Z,52.60
2022-08-09T02:49:02.982Z,52.70
2022-08-09T02:52:01.180Z,52.00
2022-08-09T02:54:59.172Z,52.80
2022-08-09T02:58:35.728Z,51.80
2022-08-09T03:01:29.124Z,52.00
2022-08-09T03:04:26.348Z,52.90
2022-08-09T03:07:25.613Z,51.90
2022-08-09T03:10:20.962Z,51.10
2022-08-09T03:13:19.641Z,51.10
2022-08-09T03:16:15.878Z,49.90
2022-08-09T03:19:14.131Z,49.30
2022-08-09T03:22:30.364Z,49.30
2022-08-09T03:25:56.772Z,49.10
2022-08-09T03:28:40.924Z,50.20
2022-08-09T03:31:42.800Z,48.80
2022-08-09T03:34:54.399Z,47.40
2022-08-09T03:37:56.541Z,48.00
2022-08-09T03:40:53.215Z,48.60
2022-08-09T03:44:03.606Z,49.10
2022-08-09T03:47:03.327Z,49.60
2022-08-09T03:50:02.394Z,49.80
2022-08-09T03:52:59.564Z,50.40
2022-08-09T03:55:54.940Z,50.40
2022-08-09T03:58:50.283Z,50.00
2022-08-09T04:01:45.860Z,50.80
2022-08-09T04:04:40.874Z,50.30
2022-08-09T04:07:52.885Z,48.50
2022-08-09T04:10:51.580Z,48.10
2022-08-09T04:14:37.327Z,47.70
2022-08-09T04:17:03.853Z,48.20
2022-08-09T04:19:58.464Z,47.40
2022-08-09T04:22:57.566Z,47.00
2022-08-09T04:25:54.161Z,48.00
2022-08-09T04:28:48.938Z,47.60
2022-08-09T04:31:46.887Z,47.70
2022-08-09T04:34:53.977Z,47.30
2022-08-09T04:37:49.423Z,46.70
2022-08-09T04:40:56.043Z,47.90
2022-08-09T04:44:05.134Z,48.10
2022-08-09T04:47:04.501Z,47.60
2022-08-09T04:50:00.988Z,48.50
2022-08-09T04:52:55.549Z,48.80
2022-08-09T04:55:57.822Z,50.00
2022-08-09T04:58:53.195Z,49.20
2022-08-09T05:01:50.061Z,49.20
2022-08-09T05:04:44.665Z,48.60
2022-08-09T05:07:41.957Z,49.40
2022-08-09T05:10:41.080Z,49.90
2022-08-09T05:13:38.626Z,50.40
2022-08-09T05:16:33.601Z,50.90
2022-08-09T05:19:44.572Z,51.30
2022-08-09T05:23:55.319Z,50.60
2022-08-09T05:25:54.063Z,50.90
2022-08-09T05:28:52.101Z,50.20
2022-08-09T05:31:56.111Z,50.20
2022-08-09T05:34:51.614Z,50.20
2022-08-09T05:37:47.908Z,50.60
2022-08-09T05:40:47.618Z,51.10
2022-08-09T05:43:48.955Z,51.30
2022-08-09T05:46:44.307Z,51.60
2022-08-09T05:50:23.279Z,51.30
2022-08-09T05:52:55.162Z,51.50
2022-08-09T05:55:50.715Z,51.20
2022-08-09T05:58:47.904Z,50.40
2022-08-09T06:01:43.481Z,50.50
2022-08-09T06:04:44.717Z,50.50
2022-08-09T06:07:40.613Z,51.00
2022-08-09T06:10:39.703Z,51.00
2022-08-09T06:13:34.359Z,50.90
2022-08-09T06:16:28.970Z,50.90
2022-08-09T06:19:24.579Z,50.60
2022-08-09T06:22:28.802Z,50.20
2022-08-09T06:25:24.134Z,50.30
2022-08-09T06:28:19.625Z,50.40
2022-08-09T06:31:15.422Z,50.20
2022-08-09T06:34:10.774Z,49.30
2022-08-09T06:37:09.974Z,49.80
2022-08-09T06:40:17.734Z,49.60
2022-08-09T06:43:18.400Z,49.60
2022-08-09T06:46:40.365Z,49.30
2022-08-09T06:49:29.335Z,48.40
2022-08-09T06:52:48.486Z,48.70
2022-08-09T06:55:43.581Z,48.30
2022-08-09T07:00:52.911Z,48.50
2022-08-09T07:02:04.500Z,48.90
2022-08-09T07:04:59.858Z,48.80
2022-08-09T07:07:59.705Z,49.00
2022-08-09T07:10:56.162Z,48.70
2022-08-09T07:14:05.223Z,48.90
2022-08-09T07:17:01.037Z,48.90
2022-08-09T07:19:56.599Z,49.20
2022-08-09T07:22:53.218Z,49.40
2022-08-09T07:25:52.200Z,49.70
2022-08-09T07:29:09.263Z,50.00
2022-08-09T07:32:04.683Z,49.90
2022-08-09T07:35:00.393Z,50.00
2022-08-09T07:37:59.417Z,50.30
2022-08-09T07:41:11.458Z,50.30
2022-08-09T07:44:07.486Z,50.70
2022-08-09T07:47:02.045Z,51.00
2022-08-09T07:50:08.214Z,51.10
2022-08-09T07:53:04.644Z,51.00
2022-08-09T07:56:03.139Z,51.40
2022-08-09T07:59:01.293Z,51.30
2022-08-09T08:01:57.015Z,51.60
2022-08-09T08:04:53.788Z,51.80
2022-08-09T08:08:44.350Z,51.80
2022-08-09T08:12:11.233Z,52.10
2022-08-09T08:14:17.925Z,52.30
2022-08-09T08:17:24.834Z,52.20
2022-08-09T08:20:30.171Z,52.40
2022-08-09T08:23:27.538Z,52.20
2022-08-09T08:26:26.760Z,52.30
2022-08-09T08:29:39.397Z,52.20
2022-08-09T08:32:52.109Z,52.00
2022-08-09T08:35:58.301Z,52.40
2022-08-09T08:38:56.282Z,52.60
2022-08-09T08:41:52.552Z,52.60
2022-08-09T08:44:48.334Z,52.20
2022-08-09T08:47:44.963Z,51.70
2022-08-09T08:50:40.902Z,51.70
2022-08-09T08:54:04.079Z,52.00
2022-08-09T08:56:56.043Z,52.10
2022-08-09T08:59:53.931Z,52.50
2022-08-09T09:02:53.913Z,52.60
2022-08-09T09:06:03.608Z,52.80
2022-08-09T09:09:00.393Z,52.70
2022-08-09T09:12:01.909Z,52.80
2022-08-09T09:14:58.779Z,52.80
2022-08-09T09:17:53.397Z,52.80
2022-08-09T09:20:48.184Z,52.30
2022-08-09T09:23:49.837Z,52.80
2022-08-09T09:27:02.524Z,52.60
2022-08-09T09:30:13.908Z,51.90
2022-08-09T09:33:17.040Z,51.90
2022-08-09T09:36:20.203Z,51.40
2022-08-09T09:39:15.687Z,51.10
2022-08-09T09:42:11.927Z,50.00
2022-08-09T09:45:10.258Z,49.70
2022-08-09T09:48:09.405Z,50.30
2022-08-09T09:51:04.326Z,50.00
2022-08-09T09:54:20.688Z,49.80
2022-08-09T09:58:00.542Z,50.10
2022-08-09T10:00:54.171Z,49.50
2022-08-09T10:03:57.083Z,49.80
2022-08-09T10:06:54.549Z,49.30
2022-08-09T10:09:54.487Z,49.50
2022-08-09T10:12:56.109Z,49.30
2022-08-09T10:16:55.590Z,49.00
2022-08-09T10:19:10.534Z,49.10
2022-08-09T10:22:05.174Z,48.80
2022-08-09T10:25:07.040Z,48.60
2022-08-09T10:28:08.241Z,48.20
2022-08-09T10:34:32.983Z,48.80
2022-08-09T10:37:28.273Z,48.20
2022-08-09T10:40:33.723Z,48.60
2022-08-09T10:43:36.046Z,48.30
2022-08-09T10:48:12.655Z,48.40
2022-08-09T10:51:03.065Z,48.00
2022-08-09T10:54:13.205Z,48.20
2022-08-09T10:57:15.725Z,48.50
2022-08-09T11:00:35.275Z,48.70
2022-08-09T11:03:49.946Z,48.40
2022-08-09T11:06:47.303Z,48.10
2022-08-09T11:09:47.995Z,48.40
2022-08-09T11:12:46.840Z,48.70
2022-08-09T11:16:04.402Z,48.80
2022-08-09T11:18:58.948Z,48.90
2022-08-09T11:22:10.555Z,49.20
2022-08-09T11:25:26.053Z,49.30
2022-08-09T11:28:56.542Z,49.20
2022-08-09T11:31:53.065Z,49.20
2022-08-09T11:34:53.505Z,49.60
2022-08-09T11:37:50.404Z,49.80
2022-08-09T11:40:45.170Z,50.00
2022-08-09T11:43:49.836Z,50.10
2022-08-09T11:46:58.419Z,49.90
2022-08-09T11:50:53.801Z,50.20
2022-08-09T11:53:58.692Z,50.50
2022-08-09T11:56:47.594Z,50.60
2022-08-09T11:59:43.340Z,50.80
2022-08-09T12:02:51.147Z,51.70
2022-08-09T12:05:49.929Z,51.20
2022-08-09T12:08:53.686Z,51.30
2022-08-09T12:12:11.963Z,51.10
2022-08-09T12:15:48.700Z,51.20
2022-08-09T12:18:49.003Z,51.20
2022-08-09T12:21:53.346Z,51.40
2022-08-09T12:24:51.665Z,51.10
2022-08-09T12:29:12.073Z,51.50
2022-08-09T12:31:01.234Z,52.00
2022-08-09T12:33:59.311Z,51.90
2022-08-09T12:36:58.945Z,51.70
2022-08-09T12:40:14.151Z,52.30
2022-08-09T12:43:11.342Z,52.00
2022-08-09T12:46:07.285Z,52.20
2022-08-09T12:49:05.528Z,52.50
2022-08-09T12:52:03.376Z,52.50
2022-08-09T12:55:03.428Z,52.40
2022-08-09T12:58:23.916Z,52.60
2022-08-09T13:01:28.347Z,52.80
2022-08-09T13:04:36.085Z,52.80
2022-08-09T13:07:51.181Z,52.80
2022-08-09T13:10:57.069Z,53.00
2022-08-09T13:14:37.171Z,53.30
2022-08-09T13:17:43.775Z,53.20
2022-08-09T13:22:33.434Z,53.30
2022-08-09T13:24:16.103Z,53.40
2022-08-09T13:27:40.227Z,53.40
2022-08-09T13:32:12.585Z,53.70
2022-08-09T13:33:58.487Z,53.60
2022-08-09T13:36:53.614Z,53.70
2022-08-09T13:41:51.049Z,53.60
2022-08-09T13:43:03.466Z,53.80
2022-08-09T13:46:44.456Z,53.70
2022-08-09T13:49:18.468Z,53.60
2022-08-09T13:52:13.593Z,53.80
2022-08-09T13:55:14.062Z,53.90
2022-08-09T13:58:11.785Z,54.00
2022-08-09T14:01:06.451Z,53.70
2022-08-09T14:04:11.419Z,53.80
2022-08-09T14:07:07.187Z,54.00
2022-08-09T14:10:01.966Z,54.00
2022-08-09T14:12:57.793Z,54.00
2022-08-09T14:16:07.149Z,54.20
2022-08-09T14:19:04.225Z,54.40
2022-08-09T14:21:58.936Z,54.40
2022-08-09T14:24:54.927Z,54.20
2022-08-09T14:27:57.233Z,54.40
2022-08-09T14:30:53.470Z,54.20
2022-08-09T14:33:52.100Z,54.50
2022-08-09T14:36:49.110Z,54.40
2022-08-09T14:39:46.710Z,54.50
2022-08-09T14:42:42.506Z,54.30
2022-08-09T14:46:54.699Z,54.50
2022-08-09T14:48:52.597Z,54.70
2022-08-09T14:51:47.186Z,54.40
2022-08-09T14:54:42.796Z,54.60
2022-08-09T14:57:43.185Z,54.60
2022-08-09T15:00:42.244Z,54.70
2022-08-09T15:03:37.161Z,54.70
2022-08-09T15:06:31.708Z,55.00
2022-08-09T15:10:03.142Z,54.80
2022-08-09T15:12:44.955Z,54.80
2022-08-09T15:15:43.670Z,54.70
2022-08-09T15:18:38.346Z,54.50
2022-08-09T15:21:55.795Z,53.70
2022-08-09T15:24:49.732Z,53.40
2022-08-09T15:27:47.783Z,53.50
2022-08-09T15:31:00.034Z,53.30
2022-08-09T15:34:31.608Z,52.90
2022-08-09T15:37:38.106Z,53.00
2022-08-09T15:40:49.303Z,53.20
2022-08-09T15:43:44.062Z,53.10
2022-08-09T15:46:38.875Z,52.90
2022-08-09T15:49:33.605Z,53.10
2022-08-09T15:52:29.215Z,53.00
2022-08-09T15:55:25.229Z,53.00
2022-08-09T15:58:26.763Z,53.00
2022-08-09T16:01:21.966Z,53.10
2022-08-09T16:04:16.742Z,53.10
2022-08-09T16:07:17.864Z,53.10
2022-08-09T16:10:38.631Z,53.30
2022-08-09T16:14:02.582Z,53.30
2022-08-09T16:16:48.092Z,53.60
2022-08-09T16:19:49.564Z,53.60
2022-08-09T16:22:57.805Z,53.70
2022-08-09T16:26:00.960Z,53.70
2022-08-09T16:28:57.434Z,53.80
2022-08-09T16:32:19.453Z,53.90
2022-08-09T16:35:07.088Z,54.00
2022-08-09T16:38:06.225Z,54.10
2022-08-09T16:41:04.023Z,54.10
2022-08-09T16:44:00.776Z,54.10
2022-08-09T16:47:04.210Z,54.10
2022-08-09T16:50:30.074Z,54.20
2022-08-09T16:53:34.258Z,54.10
2022-08-09T16:56:30.779Z,54.20
2022-08-09T16:59:25.794Z,54.00
2022-08-09T17:02:30.923Z,54.30
2022-08-09T17:06:07.004Z,54.20
2022-08-09T17:09:01.645Z,54.30
2022-08-09T17:11:59.604Z,54.40
2022-08-09T17:14:58.284Z,54.30
2022-08-09T17:18:00.741Z,54.20
2022-08-09T17:20:55.621Z,54.20
2022-08-09T17:24:28.223Z,54.40
2022-08-09T17:27:06.812Z,54.30
2022-08-09T17:30:12.799Z,54.70
2022-08-09T17:33:22.492Z,54.70
2022-08-09T17:36:17.803Z,54.40
2022-08-09T17:39:15.669Z,54.40
2022-08-09T17:42:10.955Z,54.30
2022-08-09T17:45:27.321Z,54.60
2022-08-09T17:48:32.361Z,54.70
2022-08-09T17:51:26.928Z,54.60
2022-08-09T17:54:28.136Z,54.60
2022-08-09T17:58:03.060Z,55.20
2022-08-09T18:00:46.363Z,54.70
2022-08-09T18:03:42.701Z,54.80
2022-08-09T18:06:37.854Z,54.80
2022-08-09T18:09:40.396Z,55.00
2022-08-09T18:12:40.601Z,54.60
2022-08-09T18:16:07.765Z,55.00
2022-08-09T18:20:58.967Z,54.80
2022-08-09T18:22:18.838Z,55.00
2022-08-09T18:25:13.861Z,55.00
2022-08-09T18:28:21.553Z,55.20
2022-08-09T18:31:51.050Z,55.10
2022-08-09T18:34:40.590Z,55.20
2022-08-09T18:37:48.623Z,55.00
2022-08-09T18:40:50.647Z,55.10
2022-08-09T18:43:45.325Z,55.40
2022-08-09T18:47:04.863Z,55.40
2022-08-09T18:50:03.153Z,55.20
2022-08-09T18:53:00.488Z,55.20
2022-08-09T18:56:05.657Z,55.30
2022-08-09T18:59:01.124Z,55.40
2022-08-09T19:01:56.326Z,55.50
2022-08-09T19:05:04.103Z,55.30
2022-08-09T19:08:09.942Z,55.20
2022-08-09T19:11:05.366Z,55.20
2022-08-09T19:14:06.349Z,55.20
2022-08-09T19:17:01.130Z,55.00
2022-08-09T19:19:58.671Z,55.20
2022-08-09T19:22:55.691Z,55.10
2022-08-09T19:26:01.802Z,54.90
2022-08-09T19:29:01.651Z,55.10
2022-08-09T19:31:59.934Z,55.00
2022-08-09T19:34:55.866Z,55.00
2022-08-09T19:37:55.973Z,55.00
2022-08-09T19:40:51.210Z,55.20
2022-08-09T19:44:01.721Z,55.00
2022-08-09T19:46:57.282Z,55.00
2022-08-09T19:50:05.238Z,55.20
2022-08-09T19:53:06.366Z,54.80
2022-08-09T19:56:05.717Z,54.70
2022-08-09T19:59:39.374Z,54.80
2022-08-09T20:04:23.749Z,55.00
2022-08-09T20:05:46.435Z,54.90
2022-08-09T20:08:41.988Z,54.90
2022-08-09T20:11:48.845Z,54.80
2022-08-09T20:14:50.132Z,54.60
2022-08-09T20:17:48.653Z,54.60
2022-08-09T20:20:50.334Z,54.60
2022-08-09T20:23:45.877Z,54.50
2022-08-09T20:26:41.232Z,54.40
2022-08-09T20:29:39.039Z,54.50
2022-08-09T20:32:34.170Z,54.20
2022-08-09T20:35:28.669Z,54.10
2022-08-09T20:38:33.127Z,54.10
2022-08-09T20:41:39.998Z,54.10
2022-08-09T20:44:36.401Z,54.20
2022-08-09T20:47:47.955Z,54.10
2022-08-09T20:50:47.420Z,54.00
2022-08-09T20:53:43.430Z,54.20
2022-08-09T20:56:38.120Z,54.20
2022-08-09T21:00:19.407Z,54.80
2022-08-09T21:02:52.018Z,55.70
2022-08-09T21:05:56.585Z,56.10
2022-08-09T21:08:53.379Z,56.10
2022-08-09T21:15:00.702Z,55.90
2022-08-09T21:18:22.167Z,55.90
2022-08-09T21:21:17.446Z,55.90
2022-08-09T21:24:12.439Z,56.40
2022-08-09T21:27:50.969Z,56.90
2022-08-09T21:30:28.803Z,57.60
2022-08-09T21:33:24.509Z,58.50
2022-08-09T21:36:31.850Z,59.30
2022-08-09T21:39:27.792Z,60.70
2022-08-09T21:42:36.624Z,62.60
2022-08-09T21:45:31.557Z,64.00
2022-08-09T21:48:33.656Z,66.20
2022-08-09T21:51:36.134Z,67.40
2022-08-09T21:54:38.417Z,68.60
2022-08-09T21:57:58.809Z,69.60
2022-08-09T22:00:52.774Z,71.30
2022-08-09T22:03:59.107Z,73.60
2022-08-09T22:06:59.334Z,74.80
2022-08-09T22:09:59.263Z,75.70
2022-08-09T22:12:55.692Z,75.80
2022-08-09T22:15:50.770Z,76.10
2022-08-09T22:18:54.190Z,76.50
2022-08-09T22:21:51.205Z,77.70
2022-08-09T22:24:53.517Z,78.40
2022-08-09T22:28:00.471Z,78.60
2022-08-09T22:31:01.184Z,78.00
2022-08-09T22:33:56.260Z,77.80
2022-08-09T22:36:51.365Z,79.40
2022-08-09T22:39:58.349Z,79.10
2022-08-09T22:42:53.781Z,79.60
2022-08-09T22:48:18.805Z,82.90
2022-08-09T22:49:10.223Z,83.60
2022-08-09T22:52:05.487Z,84.80
2022-08-09T22:55:02.953Z,85.30
2022-08-09T22:57:59.490Z,86.50
2022-08-09T23:00:54.874Z,85.30
2022-08-09T23:04:04.340Z,86.00
2022-08-09T23:07:18.702Z,88.00
2022-08-09T23:10:33.793Z,88.20
2022-08-09T23:13:28.441Z,87.30
2022-08-09T23:16:26.009Z,87.70
2022-08-09T23:19:20.707Z,85.60
2022-08-09T23:22:15.321Z,85.40
2022-08-09T23:25:10.506Z,84.50
2022-08-09T23:28:15.968Z,83.00
2022-08-09T23:31:10.690Z,80.50
2022-08-09T23:34:05.981Z,80.00
2022-08-09T23:37:00.526Z,77.10
2022-08-09T23:39:55.153Z,77.70
2022-08-09T23:42:49.680Z,76.90
2022-08-09T23:45:44.324Z,76.00
2022-08-09T23:48:38.813Z,74.90
2022-08-09T23:51:33.502Z,74.00
2022-08-09T23:54:28.045Z,72.60
2022-08-09T23:57:22.919Z,72.10
